Time;durP1;ratioP1;P1;durP2;ratioP2;P2;SDS_P1;SDS_P2;PMS_P1;PMS_P2;Temp;Humidity;BMP_temperature;BMP_pressure;BME280_temperature;BME280_humidity;BME280_pressure;Samples;Min_cycle;Max_cycle;Signal;HPM_P1;HPM_P2
2023/05/13 00:00:31;;;;;;;;;13.33;7.33;;;;;;;;2061374;27;1826352;-73
2023/05/13 00:01:41;;;;;;;;;10.50;8.00;;;;;;;;2031564;27;2757875;-73
2023/05/13 00:02:52;;;;;;;;;9.50;8.00;;;;;;;;2063490;27;2750275;-73
2023/05/13 00:04:05;;;;;;;;;15.00;10.67;;;;;;;;2065045;27;2794048;-73
2023/05/13 00:05:19;;;;;;;;;10.86;10.00;;;;;;;;2050456;27;1820097;-73
2023/05/13 00:06:31;;;;;;;;;8.50;7.25;;;;;;;;2056681;27;1830557;-73
2023/05/13 00:07:41;;;;;;;;;11.00;9.00;;;;;;;;2039550;27;2769034;-73
2023/05/13 00:08:52;;;;;;;;;5.00;4.67;;;;;;;;2041471;27;2742930;-73
2023/05/13 00:10:03;;;;;;;;;14.50;8.00;;;;;;;;2042718;27;2755488;-73
2023/05/13 00:11:14;;;;;;;;;12.25;10.25;;;;;;;;2060416;27;1825810;-73
2023/05/13 00:12:24;;;;;;;;;14.00;10.50;;;;;;;;2030875;27;2781508;-73
2023/05/13 00:13:35;;;;;;;;;10.50;9.00;;;;;;;;2042819;27;2774219;-73
2023/05/13 00:14:46;;;;;;;;;9.33;8.67;;;;;;;;2072568;27;1835762;-73
2023/05/13 00:15:57;;;;;;;;;13.25;8.50;;;;;;;;2060534;27;1842024;-73
2023/05/13 00:17:07;;;;;;;;;11.50;10.00;;;;;;;;2040346;27;2786705;-73
2023/05/13 00:18:19;;;;;;;;;10.33;9.00;;;;;;;;2033631;27;2780429;-73
2023/05/13 00:19:31;;;;;;;;;13.67;10.00;;;;;;;;2032576;28;1839869;-73
2023/05/13 00:20:41;;;;;;;;;10.00;10.00;;;;;;;;2027735;27;2774184;-73
2023/05/13 00:21:52;;;;;;;;;10.00;7.67;;;;;;;;2050093;27;1835770;-73
2023/05/13 00:23:02;;;;;;;;;11.00;8.50;;;;;;;;2042532;27;2760649;-73
2023/05/13 00:24:13;;;;;;;;;14.50;11.00;;;;;;;;2052174;27;2787859;-73
2023/05/13 00:25:24;;;;;;;;;12.00;10.33;;;;;;;;2056102;27;3513756;-73
2023/05/13 00:26:35;;;;;;;;;10.00;10.00;;;;;;;;2044375;27;2784666;-73
2023/05/13 00:27:46;;;;;;;;;12.50;9.00;;;;;;;;2056962;27;2766902;-73
2023/05/13 00:28:58;;;;;;;;;15.50;12.50;;;;;;;;2065443;27;2806527;-73
2023/05/13 00:30:09;;;;;;;;;7.50;7.00;;;;;;;;2042130;27;2743995;-73
2023/05/13 00:31:20;;;;;;;;;15.00;10.50;;;;;;;;2056847;27;2790920;-73
2023/05/13 00:32:31;;;;;;;;;10.00;9.00;;;;;;;;2049865;27;2755523;-73
2023/05/13 00:33:42;;;;;;;;;11.50;10.50;;;;;;;;2032581;27;2784968;-73
2023/05/13 00:34:53;;;;;;;;;13.25;11.00;;;;;;;;2070700;27;1827381;-73
2023/05/13 00:36:03;;;;;;;;;10.50;10.00;;;;;;;;2044654;27;2775276;-73
2023/05/13 00:37:16;;;;;;;;;11.83;10.33;;;;;;;;2062415;27;1821077;-73
2023/05/13 00:38:26;;;;;;;;;12.00;9.00;;;;;;;;2032402;27;2772093;-73
2023/05/13 00:39:37;;;;;;;;;11.33;9.67;;;;;;;;2042105;27;1835753;-73
2023/05/13 00:40:48;;;;;;;;;8.67;8.00;;;;;;;;2027362;28;3464839;-73
2023/05/13 00:41:58;;;;;;;;;14.50;9.50;;;;;;;;2027695;27;2785695;-73
2023/05/13 00:43:09;;;;;;;;;11.75;11.00;;;;;;;;2034817;27;1824254;-73
2023/05/13 00:44:22;;;;;;;;;14.80;12.40;;;;;;;;2072485;27;1829468;-73
2023/05/13 00:45:36;;;;;;;;;10.14;9.29;;;;;;;;2040420;27;1827389;-73
2023/05/13 00:46:48;;;;;;;;;9.00;7.50;;;;;;;;2050627;27;1825301;-73
2023/05/13 00:47:59;;;;;;;;;11.00;9.50;;;;;;;;2041220;27;2767995;-73
2023/05/13 00:49:09;;;;;;;;;11.00;10.00;;;;;;;;2039977;27;2786737;-73
2023/05/13 00:50:21;;;;;;;;;9.50;9.00;;;;;;;;2026080;27;2760686;-73
2023/05/13 00:51:31;;;;;;;;;9.00;9.00;;;;;;;;2032621;27;2754420;-73
2023/05/13 00:52:43;;;;;;;;;14.00;11.50;;;;;;;;2054989;27;2790880;-73
2023/05/13 00:53:55;;;;;;;;;9.67;9.67;;;;;;;;2020259;27;3490844;-73
2023/05/13 00:55:06;;;;;;;;;12.00;11.00;;;;;;;;2039013;27;2788847;-73
2023/05/13 00:56:23;;;;;;;;;10.50;10.50;;;;;;;;2016890;27;2778427;-73
2023/05/13 00:57:34;;;;;;;;;12.00;9.50;;;;;;;;2040690;27;2777332;-73
2023/05/13 00:58:44;;;;;;;;;9.50;7.50;;;;;;;;2016449;27;2754408;-73
2023/05/13 00:59:55;;;;;;;;;8.50;8.00;;;;;;;;2066308;27;2746158;-73
2023/05/13 01:01:06;;;;;;;;;10.50;8.00;;;;;;;;2058144;27;2760649;-73
2023/05/13 01:02:24;;;;;;;;;13.75;9.50;;;;;;;;2062257;27;1831555;-73
2023/05/13 01:03:54;;;;;;;;;16.50;10.00;;;;;;;;2028339;27;2808600;-73
2023/05/13 01:05:23;;;;;;;;;10.00;8.00;;;;;;;;2008906;27;2757552;-73
2023/05/13 01:06:55;;;;;;;;;11.50;10.50;;;;;;;;2035574;27;2789826;-73
2023/05/13 01:08:11;;;;;;;;;8.50;8.50;;;;;;;;2018191;27;2734075;-73
2023/05/13 01:09:30;;;;;;;;;9.00;8.67;;;;;;;;2074835;27;1819036;-73
2023/05/13 01:10:46;;;;;;;;;13.00;10.50;;;;;;;;2016981;27;2794024;-73
2023/05/13 01:12:01;;;;;;;;;10.00;10.00;;;;;;;;2040518;27;2787834;-73
2023/05/13 01:13:12;;;;;;;;;11.00;11.00;;;;;;;;2010430;27;2794040;-73
2023/05/13 01:14:31;;;;;;;;;11.50;11.50;;;;;;;;2013812;27;2787763;-73
2023/05/13 01:15:48;;;;;;;;;11.00;10.83;;;;;;;;2072914;27;1824309;-73
2023/05/13 01:17:08;;;;;;;;;11.00;10.50;;;;;;;;2009389;27;2788853;-73
2023/05/13 01:18:22;;;;;;;;;14.00;11.50;;;;;;;;2012162;27;2777371;-73
2023/05/13 01:19:53;;;;;;;;;13.50;12.00;;;;;;;;2017178;27;2777411;-73
2023/05/13 01:21:05;;;;;;;;;12.00;10.50;;;;;;;;2040723;27;2784639;-73
2023/05/13 01:22:15;;;;;;;;;14.00;8.00;;;;;;;;2013389;27;2764844;-73
2023/05/13 01:23:26;;;;;;;;;10.33;9.67;;;;;;;;2065115;27;3507498;-73
2023/05/13 01:24:39;;;;;;;;;15.14;15.14;;;;;;;;2062469;27;3538882;-73
2023/05/13 01:25:52;;;;;;;;;13.29;11.71;;;;;;;;2054431;27;2809673;-73
2023/05/13 01:27:02;;;;;;;;;9.50;9.50;;;;;;;;2025902;27;2766923;-73
2023/05/13 01:28:14;;;;;;;;;11.33;11.33;;;;;;;;2057500;27;2782554;-73
2023/05/13 01:29:25;;;;;;;;;10.00;9.00;;;;;;;;2032730;27;2770005;-73
2023/05/13 01:30:36;;;;;;;;;17.00;11.00;;;;;;;;2050215;27;2804417;-73
2023/05/13 01:31:48;;;;;;;;;13.25;10.25;;;;;;;;2036324;27;1823751;-73
2023/05/13 01:33:00;;;;;;;;;16.00;12.67;;;;;;;;2032019;27;2806480;-73
2023/05/13 01:34:12;;;;;;;;;11.00;11.00;;;;;;;;2034904;27;2788122;-73
2023/05/13 01:35:27;;;;;;;;;14.86;13.00;;;;;;;;2054166;27;1825306;-73
2023/05/13 01:36:40;;;;;;;;;15.33;12.83;;;;;;;;2064150;27;1837974;-73
2023/05/13 01:37:51;;;;;;;;;11.50;9.00;;;;;;;;2015182;27;2774322;-73
2023/05/13 01:39:01;;;;;;;;;14.00;10.00;;;;;;;;2038831;27;2789877;-73
2023/05/13 01:40:13;;;;;;;;;14.50;12.00;;;;;;;;2034979;27;2793974;-73
2023/05/13 01:41:23;;;;;;;;;14.50;13.50;;;;;;;;2036359;27;2800251;-73
2023/05/13 01:42:35;;;;;;;;;12.00;9.00;;;;;;;;2039080;27;2764807;-73
2023/05/13 01:43:45;;;;;;;;;14.00;14.00;;;;;;;;2048526;27;2799218;-73
2023/05/13 01:44:56;;;;;;;;;14.00;11.00;;;;;;;;2031120;27;2784591;-73
2023/05/13 01:46:11;;;;;;;;;14.75;12.00;;;;;;;;2069770;27;1827421;-73
2023/05/13 01:47:21;;;;;;;;;14.00;10.00;;;;;;;;2039100;27;2789897;-73
2023/05/13 01:48:32;;;;;;;;;17.25;13.75;;;;;;;;2037457;27;1826334;-73
2023/05/13 01:49:45;;;;;;;;;15.83;13.83;;;;;;;;2071366;27;1837752;-73
2023/05/13 01:50:55;;;;;;;;;16.00;13.00;;;;;;;;2035632;27;2801300;-73
2023/05/13 01:52:06;;;;;;;;;17.00;15.00;;;;;;;;2033461;27;2816896;-73
2023/05/13 01:53:18;;;;;;;;;8.67;8.67;;;;;;;;2051983;27;1824241;-73
2023/05/13 01:54:28;;;;;;;;;15.00;13.50;;;;;;;;2040121;27;2783672;-73
2023/05/13 01:55:40;;;;;;;;;12.25;9.75;;;;;;;;2046776;27;1846681;-73
2023/05/13 01:56:51;;;;;;;;;14.50;11.00;;;;;;;;2037335;27;2795085;-73
2023/05/13 01:58:02;;;;;;;;;11.00;8.50;;;;;;;;2008351;27;2755492;-73
2023/05/13 01:59:13;;;;;;;;;13.50;13.00;;;;;;;;2049912;27;2794050;-73
2023/05/13 02:00:24;;;;;;;;;17.50;12.25;;;;;;;;2044770;27;1827334;-73
2023/05/13 02:01:34;;;;;;;;;12.00;10.50;;;;;;;;2017316;27;2788777;-73
2023/05/13 02:02:45;;;;;;;;;13.50;13.00;;;;;;;;2036513;27;2794009;-73
2023/05/13 02:03:57;;;;;;;;;20.50;16.00;;;;;;;;2019286;27;2813068;-73
2023/05/13 02:05:11;;;;;;;;;13.86;12.14;;;;;;;;2041333;27;1833626;-73
2023/05/13 02:06:24;;;;;;;;;12.83;11.67;;;;;;;;2072385;27;1824255;-73
2023/05/13 02:07:35;;;;;;;;;15.00;11.00;;;;;;;;2018869;27;2785692;-73
2023/05/13 02:08:46;;;;;;;;;11.50;10.50;;;;;;;;2029036;27;2781506;-73
2023/05/13 02:09:58;;;;;;;;;17.50;10.50;;;;;;;;2021212;27;2807526;-73
2023/05/13 02:11:09;;;;;;;;;14.00;13.00;;;;;;;;2011275;27;2807568;-73
2023/05/13 02:12:23;;;;;;;;;11.86;10.43;;;;;;;;2068401;27;1825281;-73
2023/05/13 02:13:33;;;;;;;;;15.00;14.00;;;;;;;;2039039;27;2799222;-73
2023/05/13 02:14:45;;;;;;;;;13.17;11.17;;;;;;;;2038484;27;2791945;-73
2023/05/13 02:15:57;;;;;;;;;15.50;14.50;;;;;;;;2045938;27;1835735;-73
2023/05/13 02:17:08;;;;;;;;;16.33;13.33;;;;;;;;2040244;27;2804928;-73
2023/05/13 02:18:18;;;;;;;;;14.00;14.00;;;;;;;;2041429;27;2812762;-73
2023/05/13 02:19:29;;;;;;;;;16.00;12.50;;;;;;;;2026678;27;2804787;-73
2023/05/13 02:20:40;;;;;;;;;16.00;10.50;;;;;;;;2026326;27;2795073;-73
2023/05/13 02:21:52;;;;;;;;;14.83;11.33;;;;;;;;2037732;27;2795083;-73
2023/05/13 02:23:06;;;;;;;;;14.67;13.00;;;;;;;;2059316;27;2784599;-73
2023/05/13 02:24:16;;;;;;;;;17.00;13.00;;;;;;;;2022805;27;2827337;-73
2023/05/13 02:25:28;;;;;;;;;15.33;11.00;;;;;;;;2028302;27;2794005;-73
2023/05/13 02:26:41;;;;;;;;;18.43;16.86;;;;;;;;2034113;27;3559670;-73
2023/05/13 02:27:52;;;;;;;;;11.00;9.50;;;;;;;;2061100;27;2771131;-73
2023/05/13 02:29:05;;;;;;;;;17.43;15.71;;;;;;;;2064597;27;3540839;-73
2023/05/13 02:30:17;;;;;;;;;13.17;12.67;;;;;;;;2053801;27;2801269;-73
2023/05/13 02:31:28;;;;;;;;;9.67;8.67;;;;;;;;2020856;27;2750392;-73
2023/05/13 02:32:41;;;;;;;;;16.25;13.50;;;;;;;;2067329;27;1832651;-73
2023/05/13 02:33:53;;;;;;;;;17.33;13.00;;;;;;;;2040033;27;2797284;-73
2023/05/13 02:35:04;;;;;;;;;16.33;14.67;;;;;;;;2040288;27;2805942;-73
2023/05/13 02:36:17;;;;;;;;;15.50;15.50;;;;;;;;2070775;27;1833646;-73
2023/05/13 02:37:28;;;;;;;;;15.50;14.00;;;;;;;;2019073;27;2798235;-73
2023/05/13 02:38:40;;;;;;;;;15.86;12.43;;;;;;;;2042356;27;2802317;-73
2023/05/13 02:39:51;;;;;;;;;13.00;11.50;;;;;;;;2032256;27;2790900;-73
2023/05/13 02:41:04;;;;;;;;;16.00;15.86;;;;;;;;2039608;27;3552323;-73
2023/05/13 02:42:16;;;;;;;;;21.43;17.00;;;;;;;;2056109;27;3562722;-73
2023/05/13 02:43:30;;;;;;;;;15.71;15.14;;;;;;;;2054960;27;3538844;-73
2023/05/13 02:44:41;;;;;;;;;18.33;16.67;;;;;;;;2036142;27;3540873;-73
2023/05/13 02:45:54;;;;;;;;;17.29;16.14;;;;;;;;2053697;27;3553354;-73
2023/05/13 02:47:05;;;;;;;;;15.50;13.50;;;;;;;;2045881;27;2794022;-73
2023/05/13 02:48:17;;;;;;;;;22.60;14.80;;;;;;;;2040611;27;3569981;-73
2023/05/13 02:49:29;;;;;;;;;14.14;13.86;;;;;;;;2060737;27;2807597;-73
2023/05/13 02:50:41;;;;;;;;;19.67;15.67;;;;;;;;2029172;27;3561710;-73
2023/05/13 02:51:53;;;;;;;;;19.71;17.14;;;;;;;;2043351;27;3571093;-73
2023/05/13 02:53:06;;;;;;;;;17.86;15.00;;;;;;;;2056148;27;2811817;-73
2023/05/13 02:54:17;;;;;;;;;17.67;15.33;;;;;;;;2029312;27;3547108;-73
2023/05/13 02:55:29;;;;;;;;;16.60;16.00;;;;;;;;2061506;27;3549146;-73
2023/05/13 02:56:42;;;;;;;;;17.71;17.71;;;;;;;;2061815;27;3562790;-73
2023/05/13 02:57:55;;;;;;;;;10.67;10.50;;;;;;;;2062881;27;2786691;-73
2023/05/13 02:59:05;;;;;;;;;17.00;13.00;;;;;;;;2014130;27;2798191;-73
2023/05/13 03:00:17;;;;;;;;;19.00;16.60;;;;;;;;2034175;27;3550220;-73
2023/05/13 03:01:29;;;;;;;;;20.60;19.00;;;;;;;;2056433;27;3566875;-73
2023/05/13 03:02:41;;;;;;;;;19.20;15.80;;;;;;;;2057008;27;3538755;-73
2023/05/13 03:03:53;;;;;;;;;16.80;14.60;;;;;;;;2054104;27;3549171;-73
2023/05/13 03:05:05;;;;;;;;;21.80;18.60;;;;;;;;2067923;27;3573101;-73
2023/05/13 03:06:17;;;;;;;;;21.80;18.40;;;;;;;;2061162;27;3571048;-73
2023/05/13 03:07:29;;;;;;;;;26.40;21.80;;;;;;;;2060067;27;3588761;-73
2023/05/13 03:08:41;;;;;;;;;23.80;19.80;;;;;;;;2028276;27;3562752;-73
2023/05/13 03:09:53;;;;;;;;;17.20;16.80;;;;;;;;2059997;27;3568950;-73
2023/05/13 03:11:06;;;;;;;;;24.14;20.71;;;;;;;;2062087;27;3585640;-73
2023/05/13 03:12:17;;;;;;;;;21.20;18.80;;;;;;;;2038001;27;3565814;-73
2023/05/13 03:13:29;;;;;;;;;20.00;16.80;;;;;;;;2059693;27;3554395;-73
2023/05/13 03:14:43;;;;;;;;;20.43;17.29;;;;;;;;2064460;27;3577339;-73
2023/05/13 03:15:53;;;;;;;;;20.50;16.00;;;;;;;;2017406;27;2827377;-73
2023/05/13 03:17:05;;;;;;;;;17.20;17.00;;;;;;;;2066332;27;3561708;-73
2023/05/13 03:18:17;;;;;;;;;23.20;21.80;;;;;;;;2053787;27;3578313;-73
2023/05/13 03:19:29;;;;;;;;;22.00;18.80;;;;;;;;2035833;27;3572063;-73
2023/05/13 03:20:42;;;;;;;;;22.14;17.29;;;;;;;;2056459;27;3563798;-73
2023/05/13 03:21:54;;;;;;;;;18.60;17.20;;;;;;;;2041829;27;3560632;-73
2023/05/13 03:23:06;;;;;;;;;24.00;21.67;;;;;;;;2036202;27;3573148;-73
2023/05/13 03:24:18;;;;;;;;;20.43;19.57;;;;;;;;2049494;27;3575228;-73
2023/05/13 03:25:30;;;;;;;;;24.00;19.00;;;;;;;;2016613;27;2838809;-73
2023/05/13 03:26:41;;;;;;;;;18.67;17.33;;;;;;;;2038953;27;3564776;-73
2023/05/13 03:27:53;;;;;;;;;20.80;20.40;;;;;;;;2069271;27;3571043;-73
2023/05/13 03:29:05;;;;;;;;;22.40;20.40;;;;;;;;2064553;27;3581442;-73
2023/05/13 03:30:17;;;;;;;;;24.80;20.60;;;;;;;;2039458;27;3580393;-73
2023/05/13 03:31:29;;;;;;;;;25.40;22.20;;;;;;;;2043772;27;3591881;-73
2023/05/13 03:32:41;;;;;;;;;22.40;20.20;;;;;;;;2042344;27;3567924;-73
2023/05/13 03:33:53;;;;;;;;;23.20;19.80;;;;;;;;2059343;27;3563766;-73
2023/05/13 03:35:05;;;;;;;;;24.80;22.00;;;;;;;;2060660;27;3577306;-73
2023/05/13 03:36:16;;;;;;;;;20.20;18.00;;;;;;;;2061290;27;3564768;-73
2023/05/13 03:37:28;;;;;;;;;24.20;18.80;;;;;;;;2058908;27;3574143;-73
2023/05/13 03:38:40;;;;;;;;;21.80;19.80;;;;;;;;2060935;27;3574166;-73
2023/05/13 03:39:52;;;;;;;;;22.00;21.00;;;;;;;;2068396;27;3561657;-73
2023/05/13 03:41:04;;;;;;;;;25.00;21.80;;;;;;;;2068788;27;3577323;-73
2023/05/13 03:42:16;;;;;;;;;24.20;21.00;;;;;;;;2037921;27;3576223;-73
2023/05/13 03:43:28;;;;;;;;;24.60;19.60;;;;;;;;2032829;27;3585613;-73
2023/05/13 03:44:40;;;;;;;;;29.00;22.20;;;;;;;;2032681;27;3584913;-73
2023/05/13 03:45:54;;;;;;;;;34.25;28.00;;;;;;;;2029549;27;3593965;-73
2023/05/13 03:47:05;;;;;;;;;29.00;23.33;;;;;;;;2035069;27;3584638;-73
2023/05/13 03:48:17;;;;;;;;;25.00;23.00;;;;;;;;2042065;27;3582544;-73
2023/05/13 03:49:31;;;;;;;;;31.25;27.00;;;;;;;;2037198;27;3599149;-73
2023/05/13 03:50:41;;;;;;;;;17.50;17.50;;;;;;;;2040354;27;2830954;-73
2023/05/13 03:51:52;;;;;;;;;28.20;26.20;;;;;;;;2020353;27;2854520;-73
2023/05/13 03:53:03;;;;;;;;;30.40;24.20;;;;;;;;2040913;27;2837832;-73
2023/05/13 03:54:14;;;;;;;;;34.33;29.00;;;;;;;;2035487;27;2870382;-73
2023/05/13 03:55:25;;;;;;;;;23.67;18.67;;;;;;;;2039187;27;3570032;-73
2023/05/13 03:56:37;;;;;;;;;32.00;29.00;;;;;;;;2063368;27;3603308;-73
2023/05/13 03:57:49;;;;;;;;;33.40;29.00;;;;;;;;2029084;27;3596021;-73
2023/05/13 03:59:01;;;;;;;;;33.60;31.80;;;;;;;;2037071;27;3591894;-73
2023/05/13 04:00:14;;;;;;;;;34.20;31.60;;;;;;;;2045343;27;3595013;-73
2023/05/13 04:01:25;;;;;;;;;35.20;31.00;;;;;;;;2028276;27;3612109;-73
2023/05/13 04:02:37;;;;;;;;;43.80;32.80;;;;;;;;2038124;27;3614224;-73
2023/05/13 04:03:49;;;;;;;;;33.20;28.60;;;;;;;;2039430;27;3609602;-73
2023/05/13 04:05:01;;;;;;;;;35.60;30.60;;;;;;;;2034908;27;3605419;-73
2023/05/13 04:06:13;;;;;;;;;40.60;32.60;;;;;;;;2021779;27;3584960;-73
2023/05/13 04:07:25;;;;;;;;;38.60;34.00;;;;;;;;2069839;27;3587723;-73
2023/05/13 04:08:37;;;;;;;;;47.20;38.00;;;;;;;;2069763;27;3592903;-73
2023/05/13 04:09:49;;;;;;;;;44.20;35.20;;;;;;;;2044734;27;3591853;-73
2023/05/13 04:11:01;;;;;;;;;46.00;36.00;;;;;;;;2040082;27;3589783;-73
2023/05/13 04:12:14;;;;;;;;;39.80;35.80;;;;;;;;2037526;27;3597090;-73
2023/05/13 04:13:24;;;;;;;;;42.00;35.00;;;;;;;;2019201;27;2852351;-73
2023/05/13 04:14:37;;;;;;;;;47.60;37.80;;;;;;;;2035780;27;3609550;-73
2023/05/13 04:15:48;;;;;;;;;49.60;40.20;;;;;;;;2020918;27;3605459;-73
2023/05/13 04:17:00;;;;;;;;;46.60;37.00;;;;;;;;2036010;27;3597082;-73
2023/05/13 04:18:12;;;;;;;;;51.20;40.40;;;;;;;;2036311;27;3585630;-73
2023/05/13 04:19:24;;;;;;;;;44.00;36.00;;;;;;;;2036155;27;3580436;-73
2023/05/13 04:20:37;;;;;;;;;44.40;34.60;;;;;;;;2037696;27;3616865;-73
2023/05/13 04:21:48;;;;;;;;;52.00;40.00;;;;;;;;2020257;27;2866886;-73
2023/05/13 04:23:00;;;;;;;;;43.40;34.60;;;;;;;;2038006;27;3608595;-73
2023/05/13 04:24:12;;;;;;;;;44.40;36.00;;;;;;;;2024281;27;3595001;-73
2023/05/13 04:25:24;;;;;;;;;52.00;42.00;;;;;;;;2044823;27;3601247;-73
2023/05/13 04:26:36;;;;;;;;;52.80;38.60;;;;;;;;2040112;27;3611717;-73
2023/05/13 04:27:48;;;;;;;;;45.80;37.20;;;;;;;;2010965;27;3593934;-73
2023/05/13 04:29:00;;;;;;;;;52.40;40.40;;;;;;;;2026440;27;3607474;-73
2023/05/13 04:30:12;;;;;;;;;47.80;38.00;;;;;;;;2045644;27;3599175;-73
2023/05/13 04:31:24;;;;;;;;;51.40;41.60;;;;;;;;2034406;27;3593969;-73
2023/05/13 04:32:36;;;;;;;;;50.40;41.80;;;;;;;;2041380;27;3609623;-73
2023/05/13 04:33:48;;;;;;;;;53.60;42.20;;;;;;;;2045450;27;3608553;-73
2023/05/13 04:35:00;;;;;;;;;44.20;37.20;;;;;;;;2043918;27;3593942;-73
2023/05/13 04:36:12;;;;;;;;;53.60;42.00;;;;;;;;2041608;27;3607534;-73
2023/05/13 04:37:24;;;;;;;;;48.60;41.00;;;;;;;;2045587;27;3597192;-72
2023/05/13 04:38:36;;;;;;;;;53.80;40.80;;;;;;;;2030046;27;3628354;-73
2023/05/13 04:39:48;;;;;;;;;49.00;39.60;;;;;;;;2033031;27;3598127;-73
2023/05/13 04:40:59;;;;;;;;;49.80;39.60;;;;;;;;2035772;27;3589767;-73
2023/05/13 04:42:12;;;;;;;;;46.40;36.20;;;;;;;;2043932;27;3586730;-73
2023/05/13 04:43:24;;;;;;;;;49.20;41.40;;;;;;;;2044904;27;3604365;-73
2023/05/13 04:44:35;;;;;;;;;37.20;32.80;;;;;;;;2030175;27;3590852;-73
2023/05/13 04:45:48;;;;;;;;;52.00;40.00;;;;;;;;2042826;27;3608531;-73
2023/05/13 04:46:59;;;;;;;;;51.40;39.40;;;;;;;;2026079;27;3601225;-73
2023/05/13 04:48:11;;;;;;;;;52.40;40.40;;;;;;;;2036192;27;3601221;-73
2023/05/13 04:49:23;;;;;;;;;50.60;40.00;;;;;;;;2035463;27;3600231;-73
2023/05/13 04:50:35;;;;;;;;;54.60;41.40;;;;;;;;2036701;27;3621089;-73
2023/05/13 04:51:47;;;;;;;;;58.20;44.00;;;;;;;;2041860;27;3622192;-73
2023/05/13 04:52:59;;;;;;;;;46.40;39.80;;;;;;;;2038623;27;3586667;-73
2023/05/13 04:54:11;;;;;;;;;48.00;39.60;;;;;;;;2056965;27;3600566;-73
2023/05/13 04:55:23;;;;;;;;;47.60;40.00;;;;;;;;2029390;27;3600199;-73
2023/05/13 04:56:35;;;;;;;;;51.40;41.40;;;;;;;;2035396;27;3603351;-73
2023/05/13 04:57:47;;;;;;;;;55.00;43.20;;;;;;;;2032384;27;3614776;-73
2023/05/13 04:58:59;;;;;;;;;52.80;40.00;;;;;;;;2037462;27;3609553;-73
2023/05/13 05:00:12;;;;;;;;;51.20;40.00;;;;;;;;2036739;27;3611091;-73
2023/05/13 05:01:23;;;;;;;;;45.60;35.20;;;;;;;;2028074;27;3599178;-73
2023/05/13 05:02:35;;;;;;;;;58.60;43.20;;;;;;;;2046127;27;3629369;-73
2023/05/13 05:03:47;;;;;;;;;52.20;39.60;;;;;;;;2037048;27;3594990;-73
2023/05/13 05:04:59;;;;;;;;;57.40;43.20;;;;;;;;2036684;27;3627304;-73
2023/05/13 05:06:11;;;;;;;;;53.60;44.60;;;;;;;;2043701;27;3603322;-73
2023/05/13 05:07:24;;;;;;;;;49.80;41.60;;;;;;;;2036237;27;3610608;-73
2023/05/13 05:08:34;;;;;;;;;51.00;38.50;;;;;;;;2009925;27;2854403;-73
2023/05/13 05:09:46;;;;;;;;;57.40;44.00;;;;;;;;2043140;27;3626267;-73
2023/05/13 05:11:00;;;;;;;;;54.00;45.00;;;;;;;;2042417;27;3615840;-73
2023/05/13 05:12:10;;;;;;;;;54.00;44.00;;;;;;;;2011870;27;2870389;-73
2023/05/13 05:13:22;;;;;;;;;54.60;42.00;;;;;;;;2044165;27;3619373;-73
2023/05/13 05:14:34;;;;;;;;;53.20;40.60;;;;;;;;2037041;27;3617270;-73
2023/05/13 05:15:46;;;;;;;;;55.00;42.60;;;;;;;;2035926;27;3623505;-73
2023/05/13 05:16:58;;;;;;;;;55.80;43.40;;;;;;;;2042070;27;3629370;-73
2023/05/13 05:18:12;;;;;;;;;56.40;42.60;;;;;;;;2042389;27;3623583;-73
2023/05/13 05:19:22;;;;;;;;;53.00;41.50;;;;;;;;2010614;27;2864827;-73
2023/05/13 05:20:36;;;;;;;;;58.00;43.80;;;;;;;;2030577;27;3628374;-73
2023/05/13 05:21:47;;;;;;;;;54.50;42.50;;;;;;;;2017982;27;2875283;-73
2023/05/13 05:22:59;;;;;;;;;55.60;44.00;;;;;;;;2037671;27;3619005;-72
2023/05/13 05:24:11;;;;;;;;;56.20;44.60;;;;;;;;2043189;27;3602291;-72
2023/05/13 05:25:23;;;;;;;;;53.60;44.00;;;;;;;;2044276;27;3607845;-72
2023/05/13 05:26:35;;;;;;;;;57.80;43.80;;;;;;;;2014447;27;3627269;-73
2023/05/13 05:27:47;;;;;;;;;43.40;35.80;;;;;;;;2045700;27;3604394;-72
2023/05/13 05:28:59;;;;;;;;;53.80;43.40;;;;;;;;2045271;27;3599146;-73
2023/05/13 05:30:11;;;;;;;;;56.60;43.20;;;;;;;;2042659;27;3621020;-73
2023/05/13 05:31:23;;;;;;;;;52.20;39.40;;;;;;;;2024396;27;3622075;-73
2023/05/13 05:32:35;;;;;;;;;53.40;43.20;;;;;;;;2042126;27;3602294;-73
2023/05/13 05:33:47;;;;;;;;;56.00;44.60;;;;;;;;2029489;27;3614826;-72
2023/05/13 05:35:01;;;;;;;;;51.20;40.80;;;;;;;;2036134;27;3604470;-73
2023/05/13 05:36:11;;;;;;;;;56.00;44.00;;;;;;;;2010549;27;2865837;-73
2023/05/13 05:37:23;;;;;;;;;52.40;41.00;;;;;;;;2036584;27;3604377;-73
2023/05/13 05:38:35;;;;;;;;;59.60;44.60;;;;;;;;2034358;27;3634597;-73
2023/05/13 05:39:47;;;;;;;;;58.00;45.00;;;;;;;;2043668;27;3612755;-73
2023/05/13 05:40:59;;;;;;;;;53.00;43.20;;;;;;;;2034835;27;3622133;-73
2023/05/13 05:42:11;;;;;;;;;49.00;42.00;;;;;;;;2027668;27;3592891;-73
2023/05/13 05:43:23;;;;;;;;;56.60;45.40;;;;;;;;2039123;27;3613580;-73
2023/05/13 05:44:35;;;;;;;;;55.20;43.00;;;;;;;;2026455;27;3619393;-73
2023/05/13 05:45:47;;;;;;;;;53.40;43.00;;;;;;;;2031051;27;3614801;-73
2023/05/13 05:46:59;;;;;;;;;55.40;43.60;;;;;;;;2023370;27;3606557;-73
2023/05/13 05:48:11;;;;;;;;;54.20;42.20;;;;;;;;2028663;27;3613736;-72
2023/05/13 05:49:23;;;;;;;;;59.40;42.60;;;;;;;;2033736;27;3648102;-73
2023/05/13 05:50:35;;;;;;;;;56.80;45.00;;;;;;;;2045498;27;3617916;-73
2023/05/13 05:51:47;;;;;;;;;58.00;43.80;;;;;;;;2039041;27;3627312;-72
2023/05/13 05:52:59;;;;;;;;;48.60;41.40;;;;;;;;2042926;27;3585612;-73
2023/05/13 05:54:11;;;;;;;;;54.60;43.60;;;;;;;;2065782;27;3610621;-73
2023/05/13 05:55:23;;;;;;;;;54.60;42.60;;;;;;;;2038952;27;3621012;-72
2023/05/13 05:56:35;;;;;;;;;56.00;44.20;;;;;;;;2037690;27;3622088;-73
2023/05/13 05:57:47;;;;;;;;;50.80;40.20;;;;;;;;2037053;27;3589843;-73
2023/05/13 05:58:59;;;;;;;;;63.80;47.40;;;;;;;;2036670;27;3608523;-72
2023/05/13 06:00:11;;;;;;;;;57.80;41.80;;;;;;;;2033664;27;3624610;-72
2023/05/13 06:01:23;;;;;;;;;60.00;44.40;;;;;;;;2005857;27;3609565;-73
2023/05/13 06:02:35;;;;;;;;;55.80;41.80;;;;;;;;2015617;27;3612746;-73
2023/05/13 06:03:47;;;;;;;;;54.00;44.20;;;;;;;;2044501;27;3612786;-73
2023/05/13 06:04:59;;;;;;;;;58.00;44.80;;;;;;;;2028941;27;3603300;-73
2023/05/13 06:06:11;;;;;;;;;54.80;42.40;;;;;;;;2025985;27;3609689;-73
2023/05/13 06:07:23;;;;;;;;;52.00;42.20;;;;;;;;2029101;27;3618929;-73
2023/05/13 06:08:35;;;;;;;;;53.80;43.40;;;;;;;;2021007;27;3617926;-73
2023/05/13 06:09:47;;;;;;;;;56.40;46.20;;;;;;;;2042846;27;3621039;-73
2023/05/13 06:10:59;;;;;;;;;51.60;42.80;;;;;;;;2045524;27;3596382;-73
2023/05/13 06:12:11;;;;;;;;;58.00;45.60;;;;;;;;2041398;27;3611641;-73
2023/05/13 06:13:23;;;;;;;;;55.00;44.00;;;;;;;;2036295;27;3604431;-73
2023/05/13 06:14:35;;;;;;;;;56.40;43.00;;;;;;;;2026914;27;3622096;-72
2023/05/13 06:15:47;;;;;;;;;49.80;38.00;;;;;;;;2037931;27;3603335;-73
2023/05/13 06:16:59;;;;;;;;;60.80;45.40;;;;;;;;2034438;27;3629463;-73
2023/05/13 06:18:11;;;;;;;;;52.60;44.00;;;;;;;;2033794;27;3602270;-73
2023/05/13 06:19:23;;;;;;;;;55.60;43.60;;;;;;;;2038921;27;3618976;-73
2023/05/13 06:20:35;;;;;;;;;55.80;44.60;;;;;;;;2043061;27;3618980;-73
2023/05/13 06:21:47;;;;;;;;;52.60;43.00;;;;;;;;2030482;27;3606468;-73
2023/05/13 06:22:59;;;;;;;;;49.20;38.80;;;;;;;;2021441;27;3595360;-73
2023/05/13 06:24:11;;;;;;;;;58.40;44.60;;;;;;;;2026209;27;3614810;-73
2023/05/13 06:25:23;;;;;;;;;58.40;46.00;;;;;;;;2036330;27;3602307;-73
2023/05/13 06:26:35;;;;;;;;;49.40;40.20;;;;;;;;2041437;27;3605446;-72
2023/05/13 06:27:47;;;;;;;;;51.40;42.20;;;;;;;;2023161;27;3611788;-73
2023/05/13 06:28:59;;;;;;;;;54.00;44.20;;;;;;;;2024686;27;3605403;-73
2023/05/13 06:30:11;;;;;;;;;51.60;40.80;;;;;;;;2024600;27;3606436;-73
2023/05/13 06:31:23;;;;;;;;;53.60;43.20;;;;;;;;2021840;27;3608557;-73
2023/05/13 06:32:35;;;;;;;;;52.60;42.20;;;;;;;;2033325;27;3598148;-72
2023/05/13 06:33:47;;;;;;;;;53.40;43.60;;;;;;;;2036554;27;3599248;-73
2023/05/13 06:34:59;;;;;;;;;50.80;43.20;;;;;;;;2035076;27;3599149;-72
2023/05/13 06:36:11;;;;;;;;;48.20;40.00;;;;;;;;2028305;27;3590809;-73
2023/05/13 06:37:22;;;;;;;;;50.00;41.50;;;;;;;;2001608;27;2855438;-72
2023/05/13 06:38:34;;;;;;;;;52.60;40.20;;;;;;;;2036753;27;3611665;-72
2023/05/13 06:39:46;;;;;;;;;56.60;41.80;;;;;;;;2040868;27;3623104;-72
2023/05/13 06:40:58;;;;;;;;;52.60;43.40;;;;;;;;2036476;27;3615166;-72
2023/05/13 06:42:10;;;;;;;;;48.00;39.20;;;;;;;;2035321;27;3590876;-72
2023/05/13 06:43:22;;;;;;;;;53.40;42.80;;;;;;;;2031632;27;3600187;-72
2023/05/13 06:44:34;;;;;;;;;51.80;41.00;;;;;;;;2036028;27;3599375;-72
2023/05/13 06:45:47;;;;;;;;;51.60;40.60;;;;;;;;2040803;27;3602667;-72
2023/05/13 06:46:57;;;;;;;;;51.50;41.50;;;;;;;;2017574;27;2861718;-72
2023/05/13 06:48:10;;;;;;;;;53.60;41.20;;;;;;;;2045534;27;3604353;-72